sensor_id;sensor_type;location;lat;lon;timestamp;pressure;altitude;pressure_sealevel;temperature;humidity
31483;BME280;18103;52.246;8.052;2024-02-26T00:00:27;98731.06;;;3.56;91.39
31483;BME280;18103;52.246;8.052;2024-02-26T00:02:54;98726.44;;;3.59;91.00
31483;BME280;18103;52.246;8.052;2024-02-26T00:05:22;98715.31;;;3.69;90.64
31483;BME280;18103;52.246;8.052;2024-02-26T00:07:47;98710.22;;;3.67;91.13
31483;BME280;18103;52.246;8.052;2024-02-26T00:10:16;98716.22;;;3.56;91.17
31483;BME280;18103;52.246;8.052;2024-02-26T00:12:46;98707.22;;;3.60;91.28
31483;BME280;18103;52.246;8.052;2024-02-26T00:15:12;98713.25;;;3.50;91.20
31483;BME280;18103;52.246;8.052;2024-02-26T00:17:37;98710.75;;;3.48;91.73
31483;BME280;18103;52.246;8.052;2024-02-26T00:20:03;98712.06;;;3.54;91.70
31483;BME280;18103;52.246;8.052;2024-02-26T00:22:35;98711.38;;;3.63;90.93
31483;BME280;18103;52.246;8.052;2024-02-26T00:25:03;98713.19;;;3.63;91.34
31483;BME280;18103;52.246;8.052;2024-02-26T00:27:29;98711.88;;;3.68;90.22
31483;BME280;18103;52.246;8.052;2024-02-26T00:29:56;98730.03;;;3.70;90.02
31483;BME280;18103;52.246;8.052;2024-02-26T00:32:21;98722.31;;;3.68;89.53
31483;BME280;18103;52.246;8.052;2024-02-26T00:34:47;98725.50;;;3.60;90.95
31483;BME280;18103;52.246;8.052;2024-02-26T00:37:12;98731.56;;;3.61;91.35
31483;BME280;18103;52.246;8.052;2024-02-26T00:39:42;98720.25;;;3.49;91.75
31483;BME280;18103;52.246;8.052;2024-02-26T00:42:07;98721.69;;;3.53;91.42
31483;BME280;18103;52.246;8.052;2024-02-26T00:44:33;98724.41;;;3.52;91.62
31483;BME280;18103;52.246;8.052;2024-02-26T00:46:58;98726.41;;;3.48;90.97
31483;BME280;18103;52.246;8.052;2024-02-26T00:49:24;98730.34;;;3.54;91.77
31483;BME280;18103;52.246;8.052;2024-02-26T00:51:49;98723.47;;;3.53;91.86
31483;BME280;18103;52.246;8.052;2024-02-26T00:54:14;98740.69;;;3.55;90.94
31483;BME280;18103;52.246;8.052;2024-02-26T00:56:40;98743.50;;;3.52;90.42
31483;BME280;18103;52.246;8.052;2024-02-26T00:59:05;98736.72;;;3.50;90.71
31483;BME280;18103;52.246;8.052;2024-02-26T01:01:31;98734.72;;;3.42;91.53
31483;BME280;18103;52.246;8.052;2024-02-26T01:04:01;98734.03;;;3.51;91.11
31483;BME280;18103;52.246;8.052;2024-02-26T01:06:26;98734.50;;;3.56;91.02
31483;BME280;18103;52.246;8.052;2024-02-26T01:08:52;98739.94;;;3.53;90.75
31483;BME280;18103;52.246;8.052;2024-02-26T01:11:17;98730.19;;;3.44;91.82
31483;BME280;18103;52.246;8.052;2024-02-26T01:13:45;98729.25;;;3.45;91.29
31483;BME280;18103;52.246;8.052;2024-02-26T01:16:13;98733.31;;;3.49;91.72
31483;BME280;18103;52.246;8.052;2024-02-26T01:18:38;98724.19;;;3.55;90.81
31483;BME280;18103;52.246;8.052;2024-02-26T01:21:06;98737.56;;;3.50;91.38
31483;BME280;18103;52.246;8.052;2024-02-26T01:23:34;98728.81;;;3.51;91.24
31483;BME280;18103;52.246;8.052;2024-02-26T01:26:01;98742.19;;;3.58;91.09
31483;BME280;18103;52.246;8.052;2024-02-26T01:28:28;98732.34;;;3.39;91.32
31483;BME280;18103;52.246;8.052;2024-02-26T01:30:53;98738.41;;;3.51;91.19
31483;BME280;18103;52.246;8.052;2024-02-26T01:33:18;98736.13;;;3.35;91.68
31483;BME280;18103;52.246;8.052;2024-02-26T01:35:45;98741.59;;;3.43;92.10
31483;BME280;18103;52.246;8.052;2024-02-26T01:38:12;98735.06;;;3.37;92.12
31483;BME280;18103;52.246;8.052;2024-02-26T01:40:38;98720.13;;;3.51;91.27
31483;BME280;18103;52.246;8.052;2024-02-26T01:43:04;98726.38;;;3.37;91.65
31483;BME280;18103;52.246;8.052;2024-02-26T01:45:29;98713.84;;;3.42;91.65
31483;BME280;18103;52.246;8.052;2024-02-26T01:47:57;98714.91;;;3.39;91.58
31483;BME280;18103;52.246;8.052;2024-02-26T01:50:24;98722.47;;;3.31;91.27
31483;BME280;18103;52.246;8.052;2024-02-26T01:52:50;98714.97;;;3.15;92.11
31483;BME280;18103;52.246;8.052;2024-02-26T01:55:19;98711.88;;;3.10;93.12
31483;BME280;18103;52.246;8.052;2024-02-26T01:57:46;98703.81;;;3.13;92.77
31483;BME280;18103;52.246;8.052;2024-02-26T02:00:14;98711.88;;;3.21;92.44
31483;BME280;18103;52.246;8.052;2024-02-26T02:02:42;98701.97;;;3.27;91.85
31483;BME280;18103;52.246;8.052;2024-02-26T02:05:11;98712.97;;;3.30;91.50
31483;BME280;18103;52.246;8.052;2024-02-26T02:07:39;98709.03;;;3.13;92.28
31483;BME280;18103;52.246;8.052;2024-02-26T02:10:09;98705.94;;;3.08;92.54
31483;BME280;18103;52.246;8.052;2024-02-26T02:12:37;98707.13;;;3.04;92.43
31483;BME280;18103;52.246;8.052;2024-02-26T02:15:05;98709.34;;;2.97;92.88
31483;BME280;18103;52.246;8.052;2024-02-26T02:17:34;98702.34;;;2.98;92.70
31483;BME280;18103;52.246;8.052;2024-02-26T02:20:01;98717.03;;;2.99;92.57
31483;BME280;18103;52.246;8.052;2024-02-26T02:22:28;98718.94;;;2.97;92.98
31483;BME280;18103;52.246;8.052;2024-02-26T02:24:54;98718.59;;;3.01;92.86
31483;BME280;18103;52.246;8.052;2024-02-26T02:27:22;98725.13;;;3.07;92.61
31483;BME280;18103;52.246;8.052;2024-02-26T02:29:48;98715.88;;;3.03;92.61
31483;BME280;18103;52.246;8.052;2024-02-26T02:32:14;98726.19;;;3.04;93.34
31483;BME280;18103;52.246;8.052;2024-02-26T02:34:41;98719.19;;;3.05;92.56
31483;BME280;18103;52.246;8.052;2024-02-26T02:37:06;98727.97;;;3.04;92.93
31483;BME280;18103;52.246;8.052;2024-02-26T02:39:32;98728.41;;;2.98;93.80
31483;BME280;18103;52.246;8.052;2024-02-26T02:41:57;98734.38;;;3.11;92.75
31483;BME280;18103;52.246;8.052;2024-02-26T02:44:25;98732.94;;;3.07;92.52
31483;BME280;18103;52.246;8.052;2024-02-26T02:46:54;98733.19;;;3.04;92.89
31483;BME280;18103;52.246;8.052;2024-02-26T02:49:19;98734.28;;;3.13;92.74
31483;BME280;18103;52.246;8.052;2024-02-26T02:51:44;98733.13;;;3.28;92.08
31483;BME280;18103;52.246;8.052;2024-02-26T02:54:10;98733.91;;;3.17;92.32
31483;BME280;18103;52.246;8.052;2024-02-26T02:56:35;98734.41;;;3.22;92.13
31483;BME280;18103;52.246;8.052;2024-02-26T02:59:02;98733.75;;;3.32;91.73
31483;BME280;18103;52.246;8.052;2024-02-26T03:01:27;98732.63;;;3.23;92.18
31483;BME280;18103;52.246;8.052;2024-02-26T03:03:52;98732.50;;;3.24;92.21
31483;BME280;18103;52.246;8.052;2024-02-26T03:06:18;98740.00;;;3.29;91.31
31483;BME280;18103;52.246;8.052;2024-02-26T03:08:46;98743.28;;;3.20;90.98
31483;BME280;18103;52.246;8.052;2024-02-26T03:11:15;98736.41;;;3.19;91.04
31483;BME280;18103;52.246;8.052;2024-02-26T03:13:44;98734.66;;;3.19;91.25
31483;BME280;18103;52.246;8.052;2024-02-26T03:16:09;98748.50;;;3.20;90.53
31483;BME280;18103;52.246;8.052;2024-02-26T03:18:38;98743.28;;;3.20;90.65
31483;BME280;18103;52.246;8.052;2024-02-26T03:21:06;98750.16;;;3.10;91.47
31483;BME280;18103;52.246;8.052;2024-02-26T03:23:34;98751.31;;;3.05;91.24
31483;BME280;18103;52.246;8.052;2024-02-26T03:26:03;98750.03;;;3.11;91.12
31483;BME280;18103;52.246;8.052;2024-02-26T03:28:29;98758.94;;;3.20;90.56
31483;BME280;18103;52.246;8.052;2024-02-26T03:30:56;98760.22;;;3.14;90.94
31483;BME280;18103;52.246;8.052;2024-02-26T03:33:24;98763.56;;;3.16;91.18
31483;BME280;18103;52.246;8.052;2024-02-26T03:35:49;98766.88;;;3.18;90.82
31483;BME280;18103;52.246;8.052;2024-02-26T03:38:14;98766.16;;;3.16;90.92
31483;BME280;18103;52.246;8.052;2024-02-26T03:40:40;98765.31;;;3.16;91.01
31483;BME280;18103;52.246;8.052;2024-02-26T03:43:07;98765.94;;;3.19;90.57
31483;BME280;18103;52.246;8.052;2024-02-26T03:45:34;98770.53;;;3.16;91.35
31483;BME280;18103;52.246;8.052;2024-02-26T03:47:59;98767.53;;;3.09;91.95
31483;BME280;18103;52.246;8.052;2024-02-26T03:50:24;98765.44;;;3.14;91.58
31483;BME280;18103;52.246;8.052;2024-02-26T03:52:50;98771.75;;;3.23;91.40
31483;BME280;18103;52.246;8.052;2024-02-26T03:55:18;98771.84;;;3.21;91.61
31483;BME280;18103;52.246;8.052;2024-02-26T03:57:46;98776.84;;;3.24;90.76
31483;BME280;18103;52.246;8.052;2024-02-26T04:00:12;98778.13;;;3.19;91.85
31483;BME280;18103;52.246;8.052;2024-02-26T04:02:37;98776.47;;;3.18;91.40
31483;BME280;18103;52.246;8.052;2024-02-26T04:05:03;98777.81;;;3.23;91.46
31483;BME280;18103;52.246;8.052;2024-02-26T04:07:29;98787.63;;;3.20;91.86
31483;BME280;18103;52.246;8.052;2024-02-26T04:09:54;98787.13;;;3.15;92.39
31483;BME280;18103;52.246;8.052;2024-02-26T04:12:21;98785.34;;;3.15;92.54
31483;BME280;18103;52.246;8.052;2024-02-26T04:14:46;98786.19;;;3.16;92.59
31483;BME280;18103;52.246;8.052;2024-02-26T04:17:12;98789.00;;;3.13;93.09
31483;BME280;18103;52.246;8.052;2024-02-26T04:19:37;98796.00;;;3.12;93.64
31483;BME280;18103;52.246;8.052;2024-02-26T04:22:02;98782.53;;;3.18;92.75
31483;BME280;18103;52.246;8.052;2024-02-26T04:24:28;98793.66;;;3.20;92.78
31483;BME280;18103;52.246;8.052;2024-02-26T04:26:55;98787.34;;;3.12;93.32
31483;BME280;18103;52.246;8.052;2024-02-26T04:29:20;98796.19;;;3.22;92.32
31483;BME280;18103;52.246;8.052;2024-02-26T04:31:50;98807.06;;;3.27;92.15
31483;BME280;18103;52.246;8.052;2024-02-26T04:34:17;98803.03;;;3.23;91.88
31483;BME280;18103;52.246;8.052;2024-02-26T04:36:43;98803.59;;;3.15;92.78
31483;BME280;18103;52.246;8.052;2024-02-26T04:39:11;98802.44;;;3.19;93.10
31483;BME280;18103;52.246;8.052;2024-02-26T04:41:36;98813.69;;;3.20;92.94
31483;BME280;18103;52.246;8.052;2024-02-26T04:44:02;98806.81;;;3.19;93.12
31483;BME280;18103;52.246;8.052;2024-02-26T04:46:29;98815.88;;;3.26;92.60
31483;BME280;18103;52.246;8.052;2024-02-26T04:48:57;98819.06;;;3.30;92.50
31483;BME280;18103;52.246;8.052;2024-02-26T04:51:27;98818.78;;;3.21;93.39
31483;BME280;18103;52.246;8.052;2024-02-26T04:53:55;98816.19;;;3.21;93.67
31483;BME280;18103;52.246;8.052;2024-02-26T04:56:25;98821.44;;;3.33;92.97
31483;BME280;18103;52.246;8.052;2024-02-26T04:58:51;98821.66;;;3.30;93.16
31483;BME280;18103;52.246;8.052;2024-02-26T05:01:19;98821.44;;;3.33;92.82
31483;BME280;18103;52.246;8.052;2024-02-26T05:03:49;98829.25;;;3.33;92.83
31483;BME280;18103;52.246;8.052;2024-02-26T05:06:14;98828.94;;;3.37;92.94
31483;BME280;18103;52.246;8.052;2024-02-26T05:08:40;98822.88;;;3.37;92.47
31483;BME280;18103;52.246;8.052;2024-02-26T05:11:05;98822.88;;;3.37;92.63
31483;BME280;18103;52.246;8.052;2024-02-26T05:13:31;98825.59;;;3.35;92.45
31483;BME280;18103;52.246;8.052;2024-02-26T05:15:57;98825.59;;;3.35;92.05
31483;BME280;18103;52.246;8.052;2024-02-26T05:18:22;98833.34;;;3.48;91.44
31483;BME280;18103;52.246;8.052;2024-02-26T05:20:48;98826.63;;;3.46;91.05
31483;BME280;18103;52.246;8.052;2024-02-26T05:23:21;98824.22;;;3.42;90.99
31483;BME280;18103;52.246;8.052;2024-02-26T05:25:46;98830.28;;;3.43;91.44
31483;BME280;18103;52.246;8.052;2024-02-26T05:28:13;98828.59;;;3.42;91.08
31483;BME280;18103;52.246;8.052;2024-02-26T05:30:43;98839.06;;;3.53;90.73
31483;BME280;18103;52.246;8.052;2024-02-26T05:33:08;98837.03;;;3.46;90.62
31483;BME280;18103;52.246;8.052;2024-02-26T05:35:33;98844.19;;;3.55;90.38
31483;BME280;18103;52.246;8.052;2024-02-26T05:38:01;98845.22;;;3.52;90.05
31483;BME280;18103;52.246;8.052;2024-02-26T05:40:27;98842.16;;;3.47;90.47
31483;BME280;18103;52.246;8.052;2024-02-26T05:42:52;98853.63;;;3.45;90.17
31483;BME280;18103;52.246;8.052;2024-02-26T05:45:17;98852.06;;;3.42;90.54
31483;BME280;18103;52.246;8.052;2024-02-26T05:47:45;98857.56;;;3.50;89.88
31483;BME280;18103;52.246;8.052;2024-02-26T05:50:11;98858.63;;;3.48;90.38
31483;BME280;18103;52.246;8.052;2024-02-26T05:52:43;98866.78;;;3.43;90.54
31483;BME280;18103;52.246;8.052;2024-02-26T05:55:11;98863.66;;;3.38;90.06
31483;BME280;18103;52.246;8.052;2024-02-26T05:57:36;98866.44;;;3.48;90.11
31483;BME280;18103;52.246;8.052;2024-02-26T06:00:04;98872.63;;;3.58;89.66
31483;BME280;18103;52.246;8.052;2024-02-26T06:02:32;98864.09;;;3.56;89.76
31483;BME280;18103;52.246;8.052;2024-02-26T06:05:00;98868.38;;;3.57;89.42
31483;BME280;18103;52.246;8.052;2024-02-26T06:07:25;98887.00;;;3.64;89.44
31483;BME280;18103;52.246;8.052;2024-02-26T06:09:51;98880.47;;;3.58;89.45
31483;BME280;18103;52.246;8.052;2024-02-26T06:12:19;98886.84;;;3.54;90.09
31483;BME280;18103;52.246;8.052;2024-02-26T06:14:44;98885.78;;;3.56;89.98
31483;BME280;18103;52.246;8.052;2024-02-26T06:17:09;98891.56;;;3.73;88.35
31483;BME280;18103;52.246;8.052;2024-02-26T06:19:35;98897.09;;;3.57;90.52
31483;BME280;18103;52.246;8.052;2024-02-26T06:22:03;98901.06;;;3.50;91.32
31483;BME280;18103;52.246;8.052;2024-02-26T06:24:28;98892.56;;;3.59;90.49
31483;BME280;18103;52.246;8.052;2024-02-26T06:26:53;98899.34;;;3.62;90.87
31483;BME280;18103;52.246;8.052;2024-02-26T06:29:19;98899.97;;;3.65;91.10
31483;BME280;18103;52.246;8.052;2024-02-26T06:31:44;98898.53;;;3.61;90.75
31483;BME280;18103;52.246;8.052;2024-02-26T06:34:10;98902.34;;;3.68;90.59
31483;BME280;18103;52.246;8.052;2024-02-26T06:36:36;98907.88;;;3.64;90.73
31483;BME280;18103;52.246;8.052;2024-02-26T06:39:02;98905.63;;;3.59;90.96
31483;BME280;18103;52.246;8.052;2024-02-26T06:41:27;98904.06;;;3.56;91.21
31483;BME280;18103;52.246;8.052;2024-02-26T06:43:57;98910.94;;;3.57;91.39
31483;BME280;18103;52.246;8.052;2024-02-26T06:46:25;98907.06;;;3.63;91.32
31483;BME280;18103;52.246;8.052;2024-02-26T06:48:55;98910.59;;;3.62;91.27
31483;BME280;18103;52.246;8.052;2024-02-26T06:51:23;98913.31;;;3.60;91.35
31483;BME280;18103;52.246;8.052;2024-02-26T06:53:49;98916.06;;;3.59;91.76
31483;BME280;18103;52.246;8.052;2024-02-26T06:56:17;98912.50;;;3.60;91.15
31483;BME280;18103;52.246;8.052;2024-02-26T06:58:43;98915.72;;;3.64;90.58
31483;BME280;18103;52.246;8.052;2024-02-26T07:01:08;98916.69;;;3.63;90.61
31483;BME280;18103;52.246;8.052;2024-02-26T07:03:36;98925.56;;;3.60;90.56
31483;BME280;18103;52.246;8.052;2024-02-26T07:06:01;98919.56;;;3.71;89.76
31483;BME280;18103;52.246;8.052;2024-02-26T07:08:27;98930.44;;;3.65;90.42
31483;BME280;18103;52.246;8.052;2024-02-26T07:10:54;98925.84;;;3.68;89.85
31483;BME280;18103;52.246;8.052;2024-02-26T07:13:20;98928.75;;;3.64;90.39
31483;BME280;18103;52.246;8.052;2024-02-26T07:15:48;98927.81;;;3.65;90.93
31483;BME280;18103;52.246;8.052;2024-02-26T07:18:13;98928.91;;;3.73;90.12
31483;BME280;18103;52.246;8.052;2024-02-26T07:20:41;98926.41;;;3.72;90.41
31483;BME280;18103;52.246;8.052;2024-02-26T07:23:08;98930.59;;;3.74;90.36
31483;BME280;18103;52.246;8.052;2024-02-26T07:25:33;98932.53;;;3.84;90.27
31483;BME280;18103;52.246;8.052;2024-02-26T07:27:59;98926.00;;;3.78;90.09
31483;BME280;18103;52.246;8.052;2024-02-26T07:30:24;98922.66;;;3.76;90.57
31483;BME280;18103;52.246;8.052;2024-02-26T07:32:50;98926.31;;;3.73;90.17
31483;BME280;18103;52.246;8.052;2024-02-26T07:35:18;98921.72;;;3.77;89.91
31483;BME280;18103;52.246;8.052;2024-02-26T07:37:43;98918.97;;;3.79;89.67
31483;BME280;18103;52.246;8.052;2024-02-26T07:40:11;98921.34;;;3.82;89.16
31483;BME280;18103;52.246;8.052;2024-02-26T07:42:37;98920.53;;;3.81;89.08
31483;BME280;18103;52.246;8.052;2024-02-26T07:45:05;98927.16;;;3.74;89.57
31483;BME280;18103;52.246;8.052;2024-02-26T07:47:30;98929.41;;;3.79;89.40
31483;BME280;18103;52.246;8.052;2024-02-26T07:49:56;98930.97;;;3.81;89.65
31483;BME280;18103;52.246;8.052;2024-02-26T07:52:24;98929.06;;;3.83;89.60
31483;BME280;18103;52.246;8.052;2024-02-26T07:54:50;98931.69;;;3.83;89.50
31483;BME280;18103;52.246;8.052;2024-02-26T07:57:17;98938.81;;;3.81;89.19
31483;BME280;18103;52.246;8.052;2024-02-26T07:59:48;98941.19;;;3.84;89.07
31483;BME280;18103;52.246;8.052;2024-02-26T08:02:19;98939.09;;;3.89;88.94
31483;BME280;18103;52.246;8.052;2024-02-26T08:04:48;98941.91;;;3.86;89.38
31483;BME280;18103;52.246;8.052;2024-02-26T08:07:17;98946.56;;;3.94;89.07
31483;BME280;18103;52.246;8.052;2024-02-26T08:09:43;98943.94;;;3.94;88.49
31483;BME280;18103;52.246;8.052;2024-02-26T08:12:08;98941.91;;;3.86;89.59
31483;BME280;18103;52.246;8.052;2024-02-26T08:14:35;98936.59;;;3.88;89.18
31483;BME280;18103;52.246;8.052;2024-02-26T08:17:00;98945.34;;;3.87;88.95
31483;BME280;18103;52.246;8.052;2024-02-26T08:19:27;98946.78;;;3.91;89.16
31483;BME280;18103;52.246;8.052;2024-02-26T08:21:52;98951.56;;;3.97;88.59
31483;BME280;18103;52.246;8.052;2024-02-26T08:24:18;98944.34;;;4.01;88.27
31483;BME280;18103;52.246;8.052;2024-02-26T08:26:45;98953.09;;;4.00;88.71
31483;BME280;18103;52.246;8.052;2024-02-26T08:29:12;98958.34;;;4.00;88.96
31483;BME280;18103;52.246;8.052;2024-02-26T08:31:40;98956.66;;;3.99;88.99
31483;BME280;18103;52.246;8.052;2024-02-26T08:34:06;98964.72;;;3.96;89.63
31483;BME280;18103;52.246;8.052;2024-02-26T08:36:33;98968.47;;;4.04;88.99
31483;BME280;18103;52.246;8.052;2024-02-26T08:38:59;98974.16;;;4.09;89.20
31483;BME280;18103;52.246;8.052;2024-02-26T08:41:28;98978.78;;;4.06;89.63
31483;BME280;18103;52.246;8.052;2024-02-26T08:43:54;98982.47;;;4.15;89.29
31483;BME280;18103;52.246;8.052;2024-02-26T08:46:20;98990.31;;;4.15;89.63
31483;BME280;18103;52.246;8.052;2024-02-26T08:48:45;98983.78;;;4.09;89.68
31483;BME280;18103;52.246;8.052;2024-02-26T08:51:11;98992.81;;;4.16;89.69
31483;BME280;18103;52.246;8.052;2024-02-26T08:53:36;98993.31;;;4.21;89.43
31483;BME280;18103;52.246;8.052;2024-02-26T08:56:05;98995.56;;;4.26;89.60
31483;BME280;18103;52.246;8.052;2024-02-26T08:58:33;99005.66;;;4.31;89.52
31483;BME280;18103;52.246;8.052;2024-02-26T09:01:01;99004.34;;;4.25;90.12
31483;BME280;18103;52.246;8.052;2024-02-26T09:03:26;99008.53;;;4.27;89.71
31483;BME280;18103;52.246;8.052;2024-02-26T09:05:52;99008.88;;;4.23;89.95
31483;BME280;18103;52.246;8.052;2024-02-26T09:08:19;99010.19;;;4.28;90.35
31483;BME280;18103;52.246;8.052;2024-02-26T09:10:45;99017.69;;;4.33;90.34
31483;BME280;18103;52.246;8.052;2024-02-26T09:13:13;99016.75;;;4.34;89.64
31483;BME280;18103;52.246;8.052;2024-02-26T09:15:38;99018.50;;;4.34;89.41
31483;BME280;18103;52.246;8.052;2024-02-26T09:18:03;99020.28;;;4.33;89.77
31483;BME280;18103;52.246;8.052;2024-02-26T09:20:31;99022.47;;;4.39;89.74
31483;BME280;18103;52.246;8.052;2024-02-26T09:22:59;99029.44;;;4.39;90.31
31483;BME280;18103;52.246;8.052;2024-02-26T09:25:27;99023.53;;;4.37;90.36
31483;BME280;18103;52.246;8.052;2024-02-26T09:27:52;99020.91;;;4.37;90.86
31483;BME280;18103;52.246;8.052;2024-02-26T09:30:18;99021.72;;;4.37;90.92
31483;BME280;18103;52.246;8.052;2024-02-26T09:32:46;99025.16;;;4.38;91.71
31483;BME280;18103;52.246;8.052;2024-02-26T09:35:13;99031.13;;;4.40;91.33
31483;BME280;18103;52.246;8.052;2024-02-26T09:37:41;99033.06;;;4.49;90.49
31483;BME280;18103;52.246;8.052;2024-02-26T09:40:11;99031.16;;;4.51;90.39
31483;BME280;18103;52.246;8.052;2024-02-26T09:42:45;99036.25;;;4.53;90.40
31483;BME280;18103;52.246;8.052;2024-02-26T09:45:24;99037.00;;;4.55;90.80
31483;BME280;18103;52.246;8.052;2024-02-26T09:47:50;99029.94;;;4.44;90.90
31483;BME280;18103;52.246;8.052;2024-02-26T09:50:19;99027.47;;;4.54;90.35
31483;BME280;18103;52.246;8.052;2024-02-26T09:52:52;99033.41;;;4.56;90.84
31483;BME280;18103;52.246;8.052;2024-02-26T09:55:19;99034.03;;;4.59;90.66
31483;BME280;18103;52.246;8.052;2024-02-26T09:57:46;99037.84;;;4.67;90.32
31483;BME280;18103;52.246;8.052;2024-02-26T10:00:17;99037.03;;;4.66;90.42
31483;BME280;18103;52.246;8.052;2024-02-26T10:02:48;99042.59;;;4.73;90.15
31483;BME280;18103;52.246;8.052;2024-02-26T10:05:16;99046.19;;;4.72;90.23
31483;BME280;18103;52.246;8.052;2024-02-26T10:07:44;99046.63;;;4.66;89.99
31483;BME280;18103;52.246;8.052;2024-02-26T10:10:09;99059.25;;;4.72;89.32
31483;BME280;18103;52.246;8.052;2024-02-26T10:12:35;99068.97;;;4.70;89.40
31483;BME280;18103;52.246;8.052;2024-02-26T10:15:00;99078.25;;;4.74;88.91
31483;BME280;18103;52.246;8.052;2024-02-26T10:17:28;99074.94;;;4.72;88.66
31483;BME280;18103;52.246;8.052;2024-02-26T10:19:54;99080.03;;;4.73;88.57
31483;BME280;18103;52.246;8.052;2024-02-26T10:22:26;99077.56;;;4.83;88.89
31483;BME280;18103;52.246;8.052;2024-02-26T10:24:53;99082.53;;;4.75;88.68
31483;BME280;18103;52.246;8.052;2024-02-26T10:27:21;99082.69;;;4.85;88.09
31483;BME280;18103;52.246;8.052;2024-02-26T10:29:47;99088.97;;;4.82;88.32
31483;BME280;18103;52.246;8.052;2024-02-26T10:32:15;99083.38;;;4.87;87.78
31483;BME280;18103;52.246;8.052;2024-02-26T10:34:40;99093.97;;;4.96;87.24
31483;BME280;18103;52.246;8.052;2024-02-26T10:37:09;99090.31;;;4.99;87.61
31483;BME280;18103;52.246;8.052;2024-02-26T10:39:36;99098.03;;;5.01;88.19
31483;BME280;18103;52.246;8.052;2024-02-26T10:42:02;99094.22;;;4.93;88.11
31483;BME280;18103;52.246;8.052;2024-02-26T10:44:31;99101.97;;;5.06;87.30
31483;BME280;18103;52.246;8.052;2024-02-26T10:46:57;99103.63;;;5.07;87.12
31483;BME280;18103;52.246;8.052;2024-02-26T10:49:24;99099.97;;;5.10;87.44
31483;BME280;18103;52.246;8.052;2024-02-26T10:51:56;99114.84;;;5.09;87.62
31483;BME280;18103;52.246;8.052;2024-02-26T10:54:29;99108.50;;;5.01;86.86
31483;BME280;18103;52.246;8.052;2024-02-26T10:56:58;99113.75;;;5.12;86.56
31483;BME280;18103;52.246;8.052;2024-02-26T10:59:24;99112.94;;;5.23;86.92
31483;BME280;18103;52.246;8.052;2024-02-26T11:01:52;99110.44;;;5.10;87.95
31483;BME280;18103;52.246;8.052;2024-02-26T11:04:20;99111.75;;;5.16;88.39
31483;BME280;18103;52.246;8.052;2024-02-26T11:06:49;99117.47;;;5.21;87.13
31483;BME280;18103;52.246;8.052;2024-02-26T11:09:19;99130.91;;;5.27;87.70
31483;BME280;18103;52.246;8.052;2024-02-26T11:11:44;99125.91;;;5.24;87.53
31483;BME280;18103;52.246;8.052;2024-02-26T11:14:10;99133.63;;;5.26;86.58
31483;BME280;18103;52.246;8.052;2024-02-26T11:16:39;99124.97;;;5.25;86.87
31483;BME280;18103;52.246;8.052;2024-02-26T11:19:08;99132.13;;;5.35;87.31
31483;BME280;18103;52.246;8.052;2024-02-26T11:21:35;99137.34;;;5.35;86.75
31483;BME280;18103;52.246;8.052;2024-02-26T11:24:12;99129.84;;;5.41;87.19
31483;BME280;18103;52.246;8.052;2024-02-26T11:26:53;99130.19;;;5.48;87.42
31483;BME280;18103;52.246;8.052;2024-02-26T11:29:26;99123.22;;;5.48;87.70
31483;BME280;18103;52.246;8.052;2024-02-26T11:31:53;99128.78;;;5.55;88.03
31483;BME280;18103;52.246;8.052;2024-02-26T11:34:20;99131.88;;;5.60;87.51
31483;BME280;18103;52.246;8.052;2024-02-26T11:36:46;99130.00;;;5.62;87.08
31483;BME280;18103;52.246;8.052;2024-02-26T11:39:14;99127.00;;;5.67;86.50
31483;BME280;18103;52.246;8.052;2024-02-26T11:41:42;99134.50;;;5.60;86.91
31483;BME280;18103;52.246;8.052;2024-02-26T11:44:10;99132.00;;;5.59;86.75
31483;BME280;18103;52.246;8.052;2024-02-26T11:46:42;99130.81;;;5.63;86.13
31483;BME280;18103;52.246;8.052;2024-02-26T11:51:54;99137.09;;;5.72;86.63
31483;BME280;18103;52.246;8.052;2024-02-26T11:57:49;99140.56;;;5.83;86.07
31483;BME280;18103;52.246;8.052;2024-02-26T12:00:14;99139.59;;;5.85;85.34
31483;BME280;18103;52.246;8.052;2024-02-26T12:02:50;99139.25;;;5.89;85.55
31483;BME280;18103;52.246;8.052;2024-02-26T12:05:23;99141.75;;;5.91;85.50
31483;BME280;18103;52.246;8.052;2024-02-26T12:07:52;99147.31;;;5.86;86.67
31483;BME280;18103;52.246;8.052;2024-02-26T12:15:30;99153.66;;;6.06;84.56
31483;BME280;18103;52.246;8.052;2024-02-26T12:18:01;99163.53;;;6.03;85.03
31483;BME280;18103;52.246;8.052;2024-02-26T12:20:29;99155.69;;;6.03;84.57
31483;BME280;18103;52.246;8.052;2024-02-26T12:22:54;99138.91;;;6.05;84.66
31483;BME280;18103;52.246;8.052;2024-02-26T12:25:27;99154.03;;;6.13;84.57
31483;BME280;18103;52.246;8.052;2024-02-26T12:27:56;99148.31;;;6.08;85.19
31483;BME280;18103;52.246;8.052;2024-02-26T12:30:22;99163.78;;;6.11;84.92
31483;BME280;18103;52.246;8.052;2024-02-26T12:32:53;99172.13;;;6.05;85.38
31483;BME280;18103;52.246;8.052;2024-02-26T12:35:26;99179.63;;;6.09;84.71
31483;BME280;18103;52.246;8.052;2024-02-26T12:37:53;99177.72;;;6.23;84.50
31483;BME280;18103;52.246;8.052;2024-02-26T12:40:21;99174.34;;;6.21;85.55
31483;BME280;18103;52.246;8.052;2024-02-26T12:42:47;99183.50;;;6.26;84.80
31483;BME280;18103;52.246;8.052;2024-02-26T12:45:14;99183.16;;;6.31;84.97
31483;BME280;18103;52.246;8.052;2024-02-26T12:47:44;99186.88;;;6.28;84.44
31483;BME280;18103;52.246;8.052;2024-02-26T12:50:15;99181.66;;;6.17;85.38
31483;BME280;18103;52.246;8.052;2024-02-26T12:52:45;99185.66;;;6.32;83.57
31483;BME280;18103;52.246;8.052;2024-02-26T12:55:15;99196.72;;;6.36;84.02
31483;BME280;18103;52.246;8.052;2024-02-26T12:57:47;99200.63;;;6.42;83.70
31483;BME280;18103;52.246;8.052;2024-02-26T13:00:17;99193.66;;;6.31;84.01
31483;BME280;18103;52.246;8.052;2024-02-26T13:02:46;99202.91;;;6.35;83.54
31483;BME280;18103;52.246;8.052;2024-02-26T13:05:13;99199.72;;;6.31;84.21
31483;BME280;18103;52.246;8.052;2024-02-26T13:07:43;99207.69;;;6.41;83.82
31483;BME280;18103;52.246;8.052;2024-02-26T13:10:10;99209.13;;;6.34;83.34
31483;BME280;18103;52.246;8.052;2024-02-26T13:12:41;99211.25;;;6.40;83.21
31483;BME280;18103;52.246;8.052;2024-02-26T13:15:13;99212.81;;;6.43;83.74
31483;BME280;18103;52.246;8.052;2024-02-26T13:17:39;99213.06;;;6.40;83.36
31483;BME280;18103;52.246;8.052;2024-02-26T13:20:08;99216.84;;;6.47;82.64